Phoenix, Arizona
Traffic Map
Current Weather Conditions
Phoenix, Arizona
Clear
Clear
21°
Feels Like: 21°
Wind Chill: 21° Ceiling: Unl
Heat Index: 21° Visibility: 10mi
Dew Point: -1° Wind: 9mph
Humidity: 23% Direction: 140° (SE)
Pressure: 30.18in Gusts: 0mph
Raw Report DataKPHX 111651Z 14008KT 10SM CLR 21/M01 A3018 RMK AO2 SLP207 T02061011
Traffic Incident Summary
Active as of:
Severity:
Category:
InformationThere was an issue retrieving the traffic information for this location. Please try a different location or try again shortly.
Advertisements
Track Severe Weather on mobile